createdAt,value
2022-08-18T00:02:01.877Z,99.90
2022-08-18T00:04:35.323Z,99.90
2022-08-18T00:07:02.869Z,99.90
2022-08-18T00:09:32.515Z,99.90
2022-08-18T00:12:00.699Z,99.90
2022-08-18T00:14:27.691Z,99.90
2022-08-18T00:16:54.809Z,99.90
2022-08-18T00:19:45.356Z,99.90
2022-08-18T00:22:14.766Z,99.90
2022-08-18T00:24:48.246Z,99.90
2022-08-18T00:27:37.212Z,99.90
2022-08-18T00:30:07.722Z,99.90
2022-08-18T00:32:39.513Z,99.90
2022-08-18T00:35:14.497Z,99.90
2022-08-18T00:37:42.585Z,99.90
2022-08-18T00:40:12.786Z,99.90
2022-08-18T00:42:44.152Z,99.90
2022-08-18T00:45:19.462Z,99.90
2022-08-18T00:47:46.919Z,99.90
2022-08-18T00:50:19.548Z,99.90
2022-08-18T00:52:55.449Z,99.90
2022-08-18T00:55:24.118Z,99.90
2022-08-18T00:57:54.293Z,99.90
2022-08-18T01:00:22.543Z,99.90
2022-08-18T01:02:55.900Z,99.90
2022-08-18T01:05:34.232Z,99.90
2022-08-18T01:08:01.210Z,99.90
2022-08-18T01:10:28.237Z,99.90
2022-08-18T01:12:56.949Z,99.90
2022-08-18T01:15:29.566Z,99.90
2022-08-18T01:18:24.923Z,99.90
2022-08-18T01:21:40.012Z,99.90
2022-08-18T01:24:11.491Z,99.90
2022-08-18T01:26:44.134Z,99.90
2022-08-18T01:29:18.931Z,99.90
2022-08-18T01:31:55.639Z,99.90
2022-08-18T01:34:25.703Z,99.90
2022-08-18T01:36:54.425Z,99.90
2022-08-18T01:41:17.457Z,99.90
2022-08-18T01:42:09.311Z,99.90
2022-08-18T01:44:36.665Z,99.90
2022-08-18T01:47:04.294Z,99.90
2022-08-18T01:49:31.127Z,99.90
2022-08-18T01:51:58.174Z,99.90
2022-08-18T01:54:29.861Z,99.90
2022-08-18T01:56:57.113Z,99.90
2022-08-18T01:59:23.893Z,99.90
2022-08-18T02:01:55.978Z,99.90
2022-08-18T02:04:36.911Z,99.90
2022-08-18T02:07:07.870Z,99.90
2022-08-18T02:09:37.489Z,99.90
2022-08-18T02:12:06.193Z,99.90
2022-08-18T02:14:34.581Z,99.90
2022-08-18T02:17:03.003Z,99.90
2022-08-18T02:19:44.532Z,99.90
2022-08-18T02:22:15.080Z,99.90
2022-08-18T02:24:42.280Z,99.90
2022-08-18T02:27:11.399Z,99.90
2022-08-18T02:29:38.238Z,99.90
2022-08-18T02:32:06.197Z,99.90
2022-08-18T02:34:33.702Z,99.90
2022-08-18T02:37:00.926Z,99.90
2022-08-18T02:39:28.783Z,99.90
2022-08-18T02:41:55.490Z,99.90
2022-08-18T02:44:22.594Z,99.90
2022-08-18T02:46:53.574Z,99.90
2022-08-18T02:49:20.614Z,99.90
2022-08-18T02:51:47.457Z,99.90
2022-08-18T02:54:14.656Z,99.90
2022-08-18T02:56:42.622Z,99.90
2022-08-18T02:59:14.944Z,99.90
2022-08-18T03:01:45.632Z,99.90
2022-08-18T03:04:15.499Z,99.90
2022-08-18T03:06:44.292Z,99.90
2022-08-18T03:09:14.602Z,99.90
2022-08-18T03:11:41.801Z,99.90
2022-08-18T03:14:11.580Z,99.90
2022-08-18T03:16:52.752Z,99.90
2022-08-18T03:19:23.880Z,99.90
2022-08-18T03:21:51.018Z,99.90
2022-08-18T03:24:22.770Z,99.90
2022-08-18T03:26:52.022Z,99.90
2022-08-18T03:29:19.448Z,99.90
2022-08-18T03:31:48.811Z,99.90
2022-08-18T03:34:20.035Z,99.90
2022-08-18T03:36:49.193Z,99.90
2022-08-18T03:39:16.690Z,99.90
2022-08-18T03:42:00.119Z,99.90
2022-08-18T03:44:31.771Z,99.90
2022-08-18T03:47:00.824Z,99.90
2022-08-18T03:49:27.594Z,99.90
2022-08-18T03:51:54.567Z,99.90
2022-08-18T03:54:21.696Z,99.90
2022-08-18T03:56:49.464Z,99.90
2022-08-18T03:59:19.987Z,99.90
2022-08-18T04:01:49.313Z,99.90
2022-08-18T04:04:19.962Z,99.90
2022-08-18T04:06:50.678Z,99.90
2022-08-18T04:09:18.764Z,99.90
2022-08-18T04:11:46.463Z,99.90
2022-08-18T04:14:16.013Z,99.90
2022-08-18T04:16:43.323Z,99.90
2022-08-18T04:19:13.759Z,99.90
2022-08-18T04:21:42.399Z,99.90
2022-08-18T04:24:10.697Z,99.90
2022-08-18T04:26:45.281Z,99.90
2022-08-18T04:29:14.045Z,99.90
2022-08-18T04:31:40.771Z,99.90
2022-08-18T04:34:08.256Z,99.90
2022-08-18T04:36:36.707Z,99.90
2022-08-18T04:39:07.353Z,99.90
2022-08-18T04:41:35.613Z,99.90
2022-08-18T04:44:05.712Z,99.90
2022-08-18T04:46:40.602Z,99.90
2022-08-18T04:49:09.176Z,99.90
2022-08-18T04:52:27.063Z,99.90
2022-08-18T04:54:26.635Z,99.90
2022-08-18T04:56:53.624Z,99.90
2022-08-18T04:59:20.416Z,99.90
2022-08-18T05:01:47.788Z,99.90
2022-08-18T05:04:17.683Z,99.90
2022-08-18T05:06:45.711Z,99.90
2022-08-18T05:09:16.661Z,99.90
2022-08-18T05:11:50.776Z,99.90
2022-08-18T05:14:18.768Z,99.90
2022-08-18T05:16:48.906Z,99.90
2022-08-18T05:19:23.153Z,99.90
2022-08-18T05:21:51.749Z,99.90
2022-08-18T05:24:21.116Z,99.90
2022-08-18T05:26:49.015Z,99.90
2022-08-18T05:29:18.351Z,99.90
2022-08-18T05:31:46.297Z,99.90
2022-08-18T05:34:13.508Z,99.90
2022-08-18T05:36:52.715Z,99.90
2022-08-18T05:39:19.692Z,99.90
2022-08-18T05:41:51.360Z,99.90
2022-08-18T05:44:34.619Z,99.90
2022-08-18T05:47:16.907Z,99.90
2022-08-18T05:49:45.888Z,99.90
2022-08-18T05:52:37.761Z,99.90
2022-08-18T05:55:32.840Z,99.90
2022-08-18T05:58:04.774Z,99.90
2022-08-18T06:00:33.012Z,99.90
2022-08-18T06:03:27.842Z,99.90
2022-08-18T06:06:08.309Z,99.90
2022-08-18T06:08:55.969Z,99.90
2022-08-18T06:11:23.085Z,99.90
2022-08-18T06:13:51.671Z,99.90
2022-08-18T06:16:35.994Z,99.90
2022-08-18T06:19:40.542Z,99.90
2022-08-18T06:22:07.149Z,99.90
2022-08-18T06:24:46.952Z,99.90
2022-08-18T06:27:39.885Z,99.90
2022-08-18T06:30:17.777Z,99.90
2022-08-18T06:32:56.705Z,99.90
2022-08-18T06:35:41.639Z,99.90
2022-08-18T06:38:45.525Z,99.90
2022-08-18T06:41:42.379Z,99.90
2022-08-18T06:44:17.430Z,99.90
2022-08-18T06:47:18.461Z,99.90
2022-08-18T06:49:51.552Z,99.90
2022-08-18T06:52:24.169Z,99.90
2022-08-18T06:54:52.371Z,99.90
2022-08-18T06:57:29.140Z,99.90
2022-08-18T07:00:00.678Z,99.90
2022-08-18T07:02:43.365Z,99.90
2022-08-18T07:05:23.979Z,99.90
2022-08-18T07:08:18.606Z,99.90
2022-08-18T07:10:51.766Z,99.90
2022-08-18T07:13:23.365Z,99.90
2022-08-18T07:15:50.733Z,99.90
2022-08-18T07:18:24.538Z,99.90
2022-08-18T07:21:03.020Z,99.90
2022-08-18T07:23:40.205Z,99.90
2022-08-18T07:26:15.814Z,99.90
2022-08-18T07:28:45.026Z,99.90
2022-08-18T07:31:37.035Z,99.90
2022-08-18T07:34:27.914Z,99.90
2022-08-18T07:37:28.059Z,99.90
2022-08-18T07:40:04.166Z,99.90
2022-08-18T07:43:01.691Z,99.90
2022-08-18T07:45:37.609Z,99.90
2022-08-18T07:48:15.789Z,99.90
2022-08-18T07:51:08.893Z,99.90
2022-08-18T07:53:54.686Z,99.90
2022-08-18T07:56:44.657Z,99.90
2022-08-18T07:59:38.208Z,99.90
2022-08-18T08:02:29.304Z,99.90
2022-08-18T08:05:26.178Z,99.90
2022-08-18T08:08:01.537Z,99.90
2022-08-18T08:10:51.895Z,99.90
2022-08-18T08:13:43.804Z,99.90
2022-08-18T08:16:11.300Z,99.90
2022-08-18T08:18:53.770Z,99.90
2022-08-18T08:21:24.495Z,99.90
2022-08-18T08:24:12.129Z,99.90
2022-08-18T08:26:58.924Z,99.90
2022-08-18T08:29:44.399Z,99.90
2022-08-18T08:32:24.682Z,99.90
2022-08-18T08:35:03.228Z,99.90
2022-08-18T08:37:53.891Z,99.90
2022-08-18T08:40:32.092Z,99.90
2022-08-18T08:43:12.822Z,99.90
2022-08-18T08:45:46.614Z,99.90
2022-08-18T08:48:22.485Z,99.90
2022-08-18T08:50:57.698Z,99.90
2022-08-18T08:53:30.796Z,99.90
2022-08-18T08:56:03.244Z,99.90
2022-08-18T08:58:40.867Z,99.90
2022-08-18T09:01:12.497Z,99.90
2022-08-18T09:04:10.288Z,99.90
2022-08-18T09:07:02.833Z,99.90
2022-08-18T09:09:49.232Z,99.90
2022-08-18T09:12:47.155Z,99.90
2022-08-18T09:15:24.758Z,99.90
2022-08-18T09:18:25.113Z,99.90
2022-08-18T09:21:27.218Z,99.90
2022-08-18T09:24:05.113Z,99.90
2022-08-18T09:26:39.278Z,99.90
2022-08-18T09:29:45.015Z,99.90
2022-08-18T09:32:22.643Z,99.90
2022-08-18T09:35:27.680Z,99.90
2022-08-18T09:38:38.869Z,99.90
2022-08-18T09:41:32.146Z,99.90
2022-08-18T09:44:11.956Z,99.90
2022-08-18T09:46:46.401Z,99.90
2022-08-18T09:49:26.647Z,99.90
2022-08-18T09:52:19.930Z,99.90
2022-08-18T09:54:58.748Z,99.90
2022-08-18T09:57:41.350Z,99.90
2022-08-18T10:00:12.887Z,99.90
2022-08-18T10:02:40.335Z,99.90
2022-08-18T10:05:13.102Z,99.90
2022-08-18T10:07:43.775Z,99.90
2022-08-18T10:11:00.685Z,99.90
2022-08-18T10:13:29.768Z,99.90
2022-08-18T10:16:17.791Z,99.90
2022-08-18T10:19:00.819Z,99.90
2022-08-18T10:21:50.004Z,99.90
2022-08-18T10:24:37.449Z,99.90
2022-08-18T10:27:26.987Z,99.90
2022-08-18T10:29:57.867Z,99.90
2022-08-18T10:32:41.178Z,99.90
2022-08-18T10:35:36.686Z,99.90
2022-08-18T10:38:13.805Z,99.90
2022-08-18T10:40:51.877Z,99.90
2022-08-18T10:46:29.475Z,99.90
2022-08-18T10:49:04.469Z,98.00
2022-08-18T10:52:08.531Z,99.00
2022-08-18T10:55:17.054Z,99.60
2022-08-18T10:58:30.209Z,97.10
2022-08-18T11:01:19.521Z,99.30
2022-08-18T11:06:43.372Z,95.70
2022-08-18T11:09:11.753Z,97.40
2022-08-18T11:14:58.461Z,96.40
2022-08-18T11:17:45.377Z,98.60
2022-08-18T11:23:04.223Z,98.60
2022-08-18T11:25:34.804Z,96.40
2022-08-18T11:28:03.265Z,95.20
2022-08-18T11:30:35.318Z,95.00
2022-08-18T11:33:04.645Z,95.80
2022-08-18T11:35:35.532Z,94.40
2022-08-18T11:38:12.557Z,96.10
2022-08-18T11:41:09.455Z,94.20
2022-08-18T11:43:42.200Z,93.00
2022-08-18T11:46:30.033Z,93.20
2022-08-18T11:49:00.811Z,92.80
2022-08-18T11:51:28.589Z,93.50
2022-08-18T11:54:21.862Z,93.20
2022-08-18T11:56:50.507Z,92.10
2022-08-18T11:59:53.063Z,91.80
2022-08-18T12:02:18.401Z,91.10
2022-08-18T12:04:53.442Z,90.80
2022-08-18T12:07:36.003Z,90.80
2022-08-18T12:10:21.187Z,90.20
2022-08-18T12:12:55.680Z,91.60
2022-08-18T12:15:43.719Z,89.60
2022-08-18T12:18:19.003Z,89.70
2022-08-18T12:20:59.107Z,89.10
2022-08-18T12:23:26.207Z,90.60
2022-08-18T12:25:53.230Z,90.80
2022-08-18T12:28:22.502Z,90.80
2022-08-18T12:30:57.134Z,90.60
2022-08-18T12:33:25.528Z,87.80
2022-08-18T12:35:54.145Z,89.40
2022-08-18T12:38:23.466Z,88.60
2022-08-18T12:40:51.127Z,90.70
2022-08-18T12:43:18.342Z,88.90
2022-08-18T12:45:47.448Z,90.10
2022-08-18T12:48:14.474Z,88.80
2022-08-18T12:50:54.020Z,88.60
2022-08-18T12:53:29.159Z,89.70
2022-08-18T12:56:16.218Z,91.70
2022-08-18T12:58:46.779Z,90.80
2022-08-18T13:01:13.947Z,90.40
2022-08-18T13:03:45.532Z,88.90
2022-08-18T13:06:36.884Z,87.20
2022-08-18T13:09:16.417Z,85.60
2022-08-18T13:11:52.094Z,83.90
2022-08-18T13:14:19.956Z,84.80
2022-08-18T13:16:53.853Z,84.90
2022-08-18T13:19:21.987Z,88.00
2022-08-18T13:21:49.650Z,87.70
2022-08-18T13:24:16.766Z,87.20
2022-08-18T13:26:49.513Z,88.30
2022-08-18T13:29:19.327Z,87.80
2022-08-18T13:31:55.417Z,87.40
2022-08-18T13:34:22.989Z,86.50
2022-08-18T13:36:51.505Z,88.60
2022-08-18T13:39:21.969Z,83.90
2022-08-18T13:41:52.439Z,86.10
2022-08-18T13:44:22.457Z,85.70
2022-08-18T13:46:54.697Z,84.80
2022-08-18T13:49:30.132Z,85.00
2022-08-18T13:52:00.910Z,86.80
2022-08-18T13:54:36.017Z,85.10
2022-08-18T13:57:05.282Z,87.10
2022-08-18T13:59:34.184Z,85.80
2022-08-18T14:02:08.438Z,88.70
2022-08-18T14:04:36.363Z,86.60
2022-08-18T14:07:09.633Z,84.80
2022-08-18T14:09:38.235Z,85.00
2022-08-18T14:12:15.996Z,85.80
2022-08-18T14:14:55.042Z,88.40
2022-08-18T14:17:24.347Z,88.30
2022-08-18T14:20:21.418Z,87.90
2022-08-18T14:23:13.904Z,86.50
2022-08-18T14:26:07.221Z,88.10
2022-08-18T14:28:35.095Z,87.20
2022-08-18T14:31:05.168Z,90.10
2022-08-18T14:33:51.014Z,86.30
2022-08-18T14:36:19.582Z,88.40
2022-08-18T14:38:51.484Z,87.00
2022-08-18T14:41:20.391Z,86.80
2022-08-18T14:44:12.866Z,87.10
2022-08-18T14:46:54.057Z,87.90
2022-08-18T14:49:28.802Z,88.30
2022-08-18T14:52:02.933Z,87.30
2022-08-18T14:54:33.823Z,87.00
2022-08-18T14:57:01.801Z,87.80
2022-08-18T14:59:34.612Z,89.00
2022-08-18T15:02:06.053Z,86.90
2022-08-18T15:04:38.563Z,88.40
2022-08-18T15:07:23.843Z,89.60
2022-08-18T15:09:51.384Z,90.10
2022-08-18T15:12:38.481Z,90.50
2022-08-18T15:15:08.833Z,89.10
2022-08-18T15:17:38.359Z,90.50
2022-08-18T15:20:10.709Z,90.10
2022-08-18T15:23:00.211Z,91.30
2022-08-18T15:25:37.232Z,91.30
2022-08-18T15:28:04.562Z,91.50
2022-08-18T15:30:32.686Z,91.70
2022-08-18T15:33:03.334Z,91.90
2022-08-18T15:35:31.379Z,91.90
2022-08-18T15:37:58.535Z,91.90
2022-08-18T15:40:30.777Z,92.00
2022-08-18T15:43:09.718Z,92.30
2022-08-18T15:45:43.388Z,92.80
2022-08-18T15:48:24.890Z,92.90
2022-08-18T15:50:52.680Z,93.00
2022-08-18T15:53:22.576Z,93.40
2022-08-18T15:55:50.193Z,93.50
2022-08-18T15:58:22.159Z,93.30
2022-08-18T16:00:52.305Z,93.50
2022-08-18T16:03:21.217Z,93.60
2022-08-18T16:05:53.692Z,93.40
2022-08-18T16:08:23.314Z,93.30
2022-08-18T16:10:51.078Z,93.10
2022-08-18T16:13:17.913Z,93.10
2022-08-18T16:15:48.388Z,93.80
2022-08-18T16:18:17.601Z,93.80
2022-08-18T16:20:45.387Z,94.30
2022-08-18T16:23:13.182Z,94.70
2022-08-18T16:25:42.010Z,94.50
2022-08-18T16:28:09.505Z,94.60
2022-08-18T16:30:36.869Z,94.90
2022-08-18T16:33:06.567Z,95.10
2022-08-18T16:35:34.523Z,95.60
2022-08-18T16:38:07.541Z,96.70
2022-08-18T16:40:34.833Z,97.90
2022-08-18T16:43:01.583Z,97.90
2022-08-18T16:45:29.707Z,99.10
2022-08-18T16:47:56.752Z,98.90
2022-08-18T16:50:25.292Z,99.10
2022-08-18T16:52:52.654Z,98.80
2022-08-18T16:55:20.519Z,99.00
2022-08-18T16:58:07.620Z,99.00
2022-08-18T17:00:55.324Z,99.30
2022-08-18T17:03:42.464Z,99.10
2022-08-18T17:06:14.129Z,99.90
2022-08-18T17:08:42.118Z,99.90
2022-08-18T17:11:12.879Z,99.90
2022-08-18T17:13:40.193Z,99.90
2022-08-18T17:16:08.338Z,99.90
2022-08-18T17:18:36.054Z,99.90
2022-08-18T17:21:05.891Z,99.90
2022-08-18T17:23:33.610Z,99.90
2022-08-18T17:26:02.726Z,99.90
2022-08-18T17:28:50.595Z,99.90
2022-08-18T17:31:24.324Z,99.90
2022-08-18T17:33:55.560Z,99.90
2022-08-18T17:36:33.777Z,99.90
2022-08-18T17:39:04.356Z,99.90
2022-08-18T17:41:31.205Z,99.90
2022-08-18T17:44:00.941Z,99.90
2022-08-18T17:46:33.034Z,99.90
2022-08-18T17:49:25.072Z,99.90
2022-08-18T17:51:56.174Z,99.90
2022-08-18T17:54:38.483Z,99.90
2022-08-18T17:57:12.640Z,99.90
2022-08-18T17:59:53.497Z,99.90
2022-08-18T18:02:28.765Z,99.90
2022-08-18T18:05:00.980Z,99.90
2022-08-18T18:07:33.199Z,99.90
2022-08-18T18:10:09.954Z,99.90
2022-08-18T18:12:40.189Z,99.90
2022-08-18T18:15:12.973Z,99.90
2022-08-18T18:17:42.540Z,99.90
2022-08-18T18:20:38.215Z,99.90
2022-08-18T18:23:16.226Z,99.90
2022-08-18T18:25:43.378Z,99.90
2022-08-18T18:28:28.002Z,99.90
2022-08-18T18:31:00.033Z,99.90
2022-08-18T18:33:30.709Z,99.90
2022-08-18T18:35:59.551Z,99.90
2022-08-18T18:38:26.576Z,99.90
2022-08-18T18:41:01.292Z,99.90
2022-08-18T18:43:38.754Z,99.90
2022-08-18T18:46:23.136Z,99.90
2022-08-18T18:49:01.723Z,99.90
2022-08-18T18:51:39.131Z,99.90
2022-08-18T18:54:33.333Z,99.90
2022-08-18T18:57:00.361Z,99.90
2022-08-18T19:00:10.986Z,99.90
2022-08-18T19:02:55.790Z,99.90
2022-08-18T19:05:45.029Z,99.90
2022-08-18T19:08:21.004Z,99.90
2022-08-18T19:10:59.788Z,99.90
2022-08-18T19:13:35.080Z,99.90
2022-08-18T19:16:23.894Z,99.90
2022-08-18T19:18:59.119Z,99.90
2022-08-18T19:22:04.463Z,99.90
2022-08-18T19:24:38.962Z,99.90
2022-08-18T19:27:10.956Z,99.90
2022-08-18T19:29:42.325Z,99.90
2022-08-18T19:32:16.830Z,99.90
2022-08-18T19:34:52.672Z,99.90
2022-08-18T19:37:58.429Z,99.90
2022-08-18T19:40:45.259Z,99.90
2022-08-18T19:43:49.562Z,99.90
2022-08-18T19:46:36.433Z,99.90
2022-08-18T19:49:41.705Z,99.90
2022-08-18T19:52:46.546Z,99.90
2022-08-18T19:55:13.405Z,99.90
2022-08-18T19:58:01.741Z,99.90
2022-08-18T20:00:40.838Z,99.90
2022-08-18T20:03:29.069Z,99.90
2022-08-18T20:06:32.102Z,99.90
2022-08-18T20:08:58.159Z,99.90
2022-08-18T20:12:04.039Z,99.90
2022-08-18T20:14:35.705Z,99.90
2022-08-18T20:17:17.002Z,99.90
2022-08-18T20:19:52.555Z,99.90
2022-08-18T20:22:24.393Z,99.90
2022-08-18T20:25:17.543Z,99.90
2022-08-18T20:28:01.016Z,99.90
2022-08-18T20:31:06.834Z,99.90
2022-08-18T20:33:43.348Z,99.90
2022-08-18T20:36:26.366Z,99.90
2022-08-18T20:38:58.459Z,99.90
2022-08-18T20:41:43.315Z,99.90
2022-08-18T20:44:36.592Z,99.90
2022-08-18T20:47:06.308Z,99.90
2022-08-18T20:49:51.432Z,99.90
2022-08-18T20:52:40.294Z,99.90
2022-08-18T20:55:34.859Z,99.90
2022-08-18T20:58:12.562Z,99.90
2022-08-18T21:00:44.132Z,99.90
2022-08-18T21:03:16.534Z,99.90
2022-08-18T21:05:45.246Z,99.90
2022-08-18T21:08:16.685Z,99.90
2022-08-18T21:10:58.737Z,99.90
2022-08-18T21:13:28.933Z,99.90
2022-08-18T21:15:59.301Z,99.90
2022-08-18T21:18:27.657Z,99.90
2022-08-18T21:20:57.978Z,99.90
2022-08-18T21:23:30.059Z,99.90
2022-08-18T21:26:12.368Z,99.90
2022-08-18T21:28:42.497Z,99.90
2022-08-18T21:31:42.838Z,99.90
2022-08-18T21:34:13.395Z,99.90
2022-08-18T21:36:50.916Z,99.90
2022-08-18T21:39:19.614Z,99.90
2022-08-18T21:41:55.189Z,99.90
2022-08-18T21:44:41.990Z,99.90
2022-08-18T21:47:24.021Z,99.90
2022-08-18T21:50:15.176Z,99.90
2022-08-18T21:53:01.149Z,99.90
2022-08-18T21:55:41.490Z,99.90
2022-08-18T21:58:14.343Z,99.90
2022-08-18T22:00:46.965Z,99.90
2022-08-18T22:03:26.535Z,99.90
2022-08-18T22:06:03.378Z,99.90
2022-08-18T22:08:34.308Z,99.90
2022-08-18T22:12:01.551Z,99.90
2022-08-18T22:14:26.994Z,99.90
2022-08-18T22:17:18.929Z,99.90
2022-08-18T22:19:46.043Z,99.90
2022-08-18T22:22:31.539Z,99.90
2022-08-18T22:24:59.829Z,99.90
2022-08-18T22:27:27.210Z,99.90
2022-08-18T22:30:01.887Z,99.90
2022-08-18T22:32:28.630Z,99.90
2022-08-18T22:34:55.312Z,99.90
2022-08-18T22:37:25.548Z,99.90
2022-08-18T22:40:10.113Z,99.90
2022-08-18T22:42:37.376Z,99.90
2022-08-18T22:45:13.359Z,99.90
2022-08-18T22:47:44.822Z,99.90
2022-08-18T22:50:13.074Z,99.90
2022-08-18T22:52:49.775Z,99.90
2022-08-18T22:55:20.250Z,99.90
2022-08-18T22:57:55.728Z,99.90
2022-08-18T23:00:25.220Z,99.90
2022-08-18T23:02:53.549Z,99.90
2022-08-18T23:05:20.634Z,99.90
2022-08-18T23:07:47.794Z,99.90
2022-08-18T23:10:16.566Z,99.90
2022-08-18T23:12:44.962Z,99.90
2022-08-18T23:15:12.767Z,99.90
2022-08-18T23:17:41.589Z,99.90
2022-08-18T23:20:12.395Z,99.90
2022-08-18T23:22:45.816Z,99.90
2022-08-18T23:25:13.475Z,99.90
2022-08-18T23:27:41.198Z,99.90
2022-08-18T23:30:09.186Z,99.90
2022-08-18T23:32:36.169Z,99.90
2022-08-18T23:35:03.370Z,99.90
2022-08-18T23:37:31.627Z,99.90
2022-08-18T23:39:59.135Z,99.90
2022-08-18T23:42:25.919Z,99.90
2022-08-18T23:44:52.924Z,99.90
2022-08-18T23:47:20.578Z,99.90
2022-08-18T23:49:47.639Z,99.90
2022-08-18T23:52:14.380Z,99.90
2022-08-18T23:54:41.467Z,99.90
2022-08-18T23:57:08.170Z,99.90
2022-08-18T23:59:35.190Z,99.90
